createdAt,value
2017-09-25T00:00:09.586Z,0
2017-09-25T00:01:18.922Z,0
2017-09-25T00:02:28.256Z,0
2017-09-25T00:03:37.301Z,0
2017-09-25T00:04:46.634Z,0
2017-09-25T00:05:55.649Z,0
2017-09-25T00:07:04.987Z,0
2017-09-25T00:08:13.681Z,0
2017-09-25T00:09:23.016Z,0
2017-09-25T00:10:32.351Z,0
2017-09-25T00:11:41.046Z,0
2017-09-25T00:12:49.741Z,0
2017-09-25T00:13:58.757Z,0
2017-09-25T00:15:07.781Z,0
2017-09-25T00:16:16.476Z,0
2017-09-25T00:17:25.493Z,0
2017-09-25T00:18:34.509Z,0
2017-09-25T00:19:43.203Z,0
2017-09-25T00:20:52.855Z,0
2017-09-25T00:22:01.550Z,0
2017-09-25T00:23:10.564Z,0
2017-09-25T00:24:19.912Z,0
2017-09-25T00:25:29.570Z,0
2017-09-25T00:26:38.583Z,0
2017-09-25T00:27:47.599Z,0
2017-09-25T00:28:56.934Z,0
2017-09-25T00:30:06.271Z,0
2017-09-25T00:31:14.965Z,0
2017-09-25T00:32:24.617Z,0
2017-09-25T00:33:34.590Z,0
2017-09-25T00:34:44.247Z,0
2017-09-25T00:35:53.581Z,0
2017-09-25T00:37:02.594Z,0
2017-09-25T00:38:11.941Z,0
2017-09-25T00:39:20.957Z,0
2017-09-25T00:40:29.978Z,0
2017-09-25T00:41:38.992Z,0
2017-09-25T00:42:48.008Z,0
2017-09-25T00:43:57.345Z,0
2017-09-25T00:45:06.363Z,0
2017-09-25T00:46:15.060Z,0
2017-09-25T00:47:23.755Z,0
2017-09-25T00:48:32.772Z,0
2017-09-25T00:49:41.468Z,0
2017-09-25T00:50:50.484Z,0
2017-09-25T00:51:59.185Z,0
2017-09-25T00:53:08.841Z,0
2017-09-25T00:54:17.855Z,0
2017-09-25T00:55:26.866Z,0
2017-09-25T00:56:36.526Z,0
2017-09-25T00:57:45.858Z,0
2017-09-25T00:58:54.553Z,0
2017-09-25T01:00:03.889Z,0
2017-09-25T01:01:13.229Z,0
2017-09-25T01:02:22.242Z,0
2017-09-25T01:03:31.260Z,0
2017-09-25T01:04:41.235Z,0
2017-09-25T01:05:50.573Z,0
2017-09-25T01:06:59.906Z,0
2017-09-25T01:08:08.924Z,0
2017-09-25T01:09:18.261Z,0
2017-09-25T01:10:26.957Z,0
2017-09-25T01:11:36.290Z,0
2017-09-25T01:12:45.306Z,0
2017-09-25T01:13:54.954Z,0
2017-09-25T01:15:03.971Z,0
2017-09-25T01:16:13.311Z,0
2017-09-25T01:17:22.327Z,0
2017-09-25T01:18:31.023Z,0
2017-09-25T01:19:40.677Z,0
2017-09-25T01:20:50.335Z,0
2017-09-25T01:21:59.353Z,0
2017-09-25T01:23:08.684Z,0
2017-09-25T01:24:17.701Z,0
2017-09-25T01:25:26.718Z,0
2017-09-25T01:26:35.734Z,0
2017-09-25T01:27:44.755Z,0
2017-09-25T01:28:54.415Z,0
2017-09-25T01:30:03.748Z,0
2017-09-25T01:31:12.765Z,0
2017-09-25T01:32:21.459Z,0
2017-09-25T01:33:31.113Z,0
2017-09-25T01:34:40.127Z,0
2017-09-25T01:35:48.821Z,0
2017-09-25T01:36:57.835Z,0
2017-09-25T01:38:07.492Z,0
2017-09-25T01:39:16.507Z,0
2017-09-25T01:40:25.522Z,0
2017-09-25T01:41:34.857Z,0
2017-09-25T01:42:43.871Z,0
2017-09-25T01:43:52.564Z,0
2017-09-25T01:45:01.259Z,0
2017-09-25T01:46:10.276Z,0
2017-09-25T01:47:19.287Z,0
2017-09-25T01:48:28.302Z,0
2017-09-25T01:49:37.315Z,0
2017-09-25T01:50:46.332Z,0
2017-09-25T01:51:55.025Z,0
2017-09-25T01:53:04.040Z,0
2017-09-25T01:54:13.056Z,0
2017-09-25T01:55:22.074Z,0
2017-09-25T01:56:30.767Z,0
2017-09-25T01:57:39.781Z,0
2017-09-25T01:58:48.796Z,0
2017-09-25T01:59:58.132Z,0
2017-09-25T02:01:07.148Z,0
2017-09-25T02:02:15.842Z,0
2017-09-25T02:03:25.181Z,0
2017-09-25T02:04:34.515Z,0
2017-09-25T02:05:44.169Z,0
2017-09-25T02:06:53.503Z,0
2017-09-25T02:08:02.515Z,0
2017-09-25T02:09:11.861Z,0
2017-09-25T02:10:20.875Z,0
2017-09-25T02:11:29.889Z,0
2017-09-25T02:12:38.585Z,0
2017-09-25T02:13:47.602Z,0
2017-09-25T02:14:56.932Z,0
2017-09-25T02:16:05.950Z,0
2017-09-25T02:17:14.964Z,0
2017-09-25T02:18:23.982Z,0
2017-09-25T02:19:33.004Z,0
2017-09-25T02:20:42.020Z,0
2017-09-25T02:21:51.356Z,0
2017-09-25T02:23:00.371Z,0
2017-09-25T02:24:09.388Z,0
2017-09-25T02:25:19.047Z,0
2017-09-25T02:26:28.062Z,0
2017-09-25T02:27:37.074Z,0
2017-09-25T02:28:46.408Z,0
2017-09-25T02:29:55.425Z,0
2017-09-25T02:31:04.438Z,0
2017-09-25T02:32:13.781Z,0
2017-09-25T02:33:23.436Z,0
2017-09-25T02:34:32.772Z,0
2017-09-25T02:35:42.108Z,0
2017-09-25T02:36:51.457Z,0
2017-09-25T02:38:00.462Z,0
2017-09-25T02:39:09.480Z,0
2017-09-25T02:40:19.148Z,0
2017-09-25T02:41:28.163Z,0
2017-09-25T02:42:37.176Z,0
2017-09-25T02:43:46.515Z,0
2017-09-25T02:44:56.170Z,0
2017-09-25T02:46:05.830Z,0
2017-09-25T02:47:14.842Z,0
2017-09-25T02:48:24.501Z,0
2017-09-25T02:49:33.517Z,0
2017-09-25T02:50:42.529Z,0
2017-09-25T02:51:51.546Z,0
2017-09-25T02:53:01.200Z,0
2017-09-25T02:54:10.554Z,0
2017-09-25T02:55:19.572Z,0
2017-09-25T02:56:28.270Z,0
2017-09-25T02:57:37.607Z,0
2017-09-25T02:58:46.622Z,0
2017-09-25T02:59:55.320Z,0
2017-09-25T03:01:04.335Z,0
2017-09-25T03:02:13.347Z,0
2017-09-25T03:03:22.681Z,0
2017-09-25T03:04:31.697Z,0
2017-09-25T03:05:40.709Z,0
2017-09-25T03:06:49.723Z,0
2017-09-25T03:07:58.418Z,0
2017-09-25T03:09:07.111Z,0
2017-09-25T03:10:16.128Z,0
2017-09-25T03:11:24.825Z,0
2017-09-25T03:12:33.844Z,0
2017-09-25T03:13:43.180Z,0
2017-09-25T03:14:52.557Z,0
2017-09-25T03:16:01.254Z,0
2017-09-25T03:17:11.229Z,0
2017-09-25T03:18:19.926Z,0
2017-09-25T03:19:28.940Z,0
2017-09-25T03:20:37.956Z,0
2017-09-25T03:21:46.970Z,0
2017-09-25T03:22:56.308Z,0
2017-09-25T03:24:05.640Z,0
2017-09-25T03:25:14.974Z,0
2017-09-25T03:26:23.669Z,0
2017-09-25T03:27:33.007Z,0
2017-09-25T03:28:42.346Z,0
2017-09-25T03:29:51.679Z,0
2017-09-25T03:31:00.702Z,0
2017-09-25T03:32:10.040Z,0
2017-09-25T03:33:19.372Z,0
2017-09-25T03:34:28.387Z,0
2017-09-25T03:35:37.407Z,0
2017-09-25T03:36:46.423Z,0
2017-09-25T03:37:55.756Z,0
2017-09-25T03:39:04.771Z,0
2017-09-25T03:40:13.784Z,0
2017-09-25T03:41:22.478Z,0
2017-09-25T03:42:31.492Z,0
2017-09-25T03:43:40.189Z,0
2017-09-25T03:44:48.883Z,0
2017-09-25T03:45:57.899Z,0
2017-09-25T03:47:06.597Z,0
2017-09-25T03:48:16.250Z,0
2017-09-25T03:49:25.272Z,0
2017-09-25T03:50:34.605Z,0
2017-09-25T03:51:43.620Z,0
2017-09-25T03:52:52.955Z,0
2017-09-25T03:54:01.648Z,0
2017-09-25T03:55:10.344Z,0
2017-09-25T03:56:19.050Z,0
2017-09-25T03:57:27.744Z,0
2017-09-25T03:58:37.399Z,0
2017-09-25T03:59:46.093Z,0
2017-09-25T04:00:54.788Z,0
2017-09-25T04:02:03.801Z,0
2017-09-25T04:03:12.817Z,0
2017-09-25T04:04:21.512Z,0
2017-09-25T04:05:30.525Z,0
2017-09-25T04:06:40.184Z,0
2017-09-25T04:07:49.514Z,0
2017-09-25T04:08:58.528Z,0
2017-09-25T04:10:07.864Z,0
2017-09-25T04:11:17.198Z,0
2017-09-25T04:12:25.894Z,0
2017-09-25T04:13:34.588Z,0
2017-09-25T04:14:43.283Z,0
2017-09-25T04:15:52.297Z,0
2017-09-25T04:17:00.996Z,0
2017-09-25T04:18:10.655Z,0
2017-09-25T04:19:19.987Z,0
2017-09-25T04:20:29.320Z,0
2017-09-25T04:21:38.337Z,0
2017-09-25T04:22:47.031Z,0
2017-09-25T04:23:56.045Z,0
2017-09-25T04:25:06.376Z,0
2017-09-25T04:26:15.392Z,0
2017-09-25T04:27:24.405Z,0
2017-09-25T04:28:33.422Z,0
2017-09-25T04:29:42.119Z,0
2017-09-25T04:30:50.815Z,0
2017-09-25T04:32:00.473Z,0
2017-09-25T04:33:09.805Z,0
2017-09-25T04:34:19.460Z,0
2017-09-25T04:35:28.472Z,0
2017-09-25T04:36:37.817Z,0
2017-09-25T04:37:46.513Z,0
2017-09-25T04:38:55.210Z,0
2017-09-25T04:40:04.224Z,0
2017-09-25T04:41:13.558Z,0
2017-09-25T04:42:22.892Z,0
2017-09-25T04:43:31.586Z,0
2017-09-25T04:44:40.280Z,0
2017-09-25T04:45:49.616Z,0
2017-09-25T04:46:59.588Z,0
2017-09-25T04:48:08.922Z,0
2017-09-25T04:49:18.578Z,0
2017-09-25T04:50:27.274Z,0
2017-09-25T04:51:36.614Z,0
2017-09-25T04:52:45.313Z,0
2017-09-25T04:53:54.649Z,0
2017-09-25T04:55:03.661Z,0
2017-09-25T04:56:12.675Z,0
2017-09-25T04:57:22.012Z,0
2017-09-25T04:58:31.355Z,0
2017-09-25T04:59:40.688Z,0
2017-09-25T05:00:50.026Z,0
2017-09-25T05:02:00.000Z,0
2017-09-25T05:03:09.014Z,0
2017-09-25T05:04:18.030Z,0
2017-09-25T05:05:27.686Z,0
2017-09-25T05:06:37.024Z,4
2017-09-25T05:07:45.725Z,4
2017-09-25T05:08:54.418Z,0
2017-09-25T05:10:03.757Z,0
2017-09-25T05:11:12.451Z,4
2017-09-25T05:12:21.150Z,4
2017-09-25T05:13:30.485Z,4
2017-09-25T05:14:39.820Z,4
2017-09-25T05:15:48.837Z,4
2017-09-25T05:16:58.490Z,4
2017-09-25T05:18:07.833Z,4
2017-09-25T05:19:17.168Z,4
2017-09-25T05:20:26.183Z,8
2017-09-25T05:21:35.197Z,4
2017-09-25T05:22:43.902Z,8
2017-09-25T05:23:52.600Z,4
2017-09-25T05:25:01.294Z,8
2017-09-25T05:26:10.307Z,8
2017-09-25T05:27:19.002Z,8
2017-09-25T05:28:27.696Z,8
2017-09-25T05:29:37.675Z,8
2017-09-25T05:30:46.371Z,12
2017-09-25T05:31:55.062Z,12
2017-09-25T05:33:04.079Z,12
2017-09-25T05:34:13.412Z,16
2017-09-25T05:35:22.749Z,12
2017-09-25T05:36:32.088Z,16
2017-09-25T05:37:40.790Z,16
2017-09-25T05:38:50.443Z,16
2017-09-25T05:40:00.106Z,16
2017-09-25T05:41:09.776Z,20
2017-09-25T05:42:18.790Z,24
2017-09-25T05:43:27.484Z,20
2017-09-25T05:44:37.140Z,24
2017-09-25T05:45:46.805Z,24
2017-09-25T05:46:56.462Z,24
2017-09-25T05:48:05.158Z,24
2017-09-25T05:49:13.854Z,24
2017-09-25T05:50:22.870Z,24
2017-09-25T05:51:32.204Z,28
2017-09-25T05:52:40.898Z,28
2017-09-25T05:53:49.915Z,28
2017-09-25T05:54:59.252Z,32
2017-09-25T05:56:08.585Z,28
2017-09-25T05:57:17.921Z,32
2017-09-25T05:58:26.617Z,36
2017-09-25T05:59:35.312Z,36
2017-09-25T06:00:44.973Z,40
2017-09-25T06:01:54.307Z,44
2017-09-25T06:03:03.322Z,48
2017-09-25T06:04:12.974Z,44
2017-09-25T06:05:21.668Z,52
2017-09-25T06:06:30.686Z,52
2017-09-25T06:07:40.337Z,56
2017-09-25T06:08:49.995Z,56
2017-09-25T06:09:58.691Z,56
2017-09-25T06:11:07.391Z,64
2017-09-25T06:12:16.410Z,68
2017-09-25T06:13:25.107Z,72
2017-09-25T06:14:34.762Z,76
2017-09-25T06:15:44.104Z,76
2017-09-25T06:16:53.116Z,80
2017-09-25T06:18:02.130Z,80
2017-09-25T06:19:11.147Z,84
2017-09-25T06:20:20.483Z,88
2017-09-25T06:21:29.816Z,96
2017-09-25T06:22:39.481Z,104
2017-09-25T06:23:49.134Z,116
2017-09-25T06:24:58.149Z,128
2017-09-25T06:26:06.845Z,140
2017-09-25T06:27:15.863Z,156
2017-09-25T06:28:25.198Z,176
2017-09-25T06:29:33.891Z,212
2017-09-25T06:30:42.587Z,276
2017-09-25T06:31:51.289Z,356
2017-09-25T06:33:00.943Z,420
2017-09-25T06:34:09.644Z,404
2017-09-25T06:35:18.975Z,364
2017-09-25T06:36:27.670Z,392
2017-09-25T06:37:36.681Z,416
2017-09-25T06:38:46.019Z,428
2017-09-25T06:39:55.356Z,436
2017-09-25T06:41:04.369Z,472
2017-09-25T06:42:13.383Z,500
2017-09-25T06:43:22.716Z,468
2017-09-25T06:44:32.051Z,452
2017-09-25T06:45:41.704Z,436
2017-09-25T06:46:51.047Z,420
2017-09-25T06:48:00.061Z,428
2017-09-25T06:49:09.392Z,436
2017-09-25T06:50:18.726Z,440
2017-09-25T06:51:28.384Z,452
2017-09-25T06:52:37.721Z,480
2017-09-25T06:53:46.740Z,480
2017-09-25T06:54:55.753Z,492
2017-09-25T06:56:05.089Z,496
2017-09-25T06:57:13.786Z,524
2017-09-25T06:58:23.121Z,540
2017-09-25T06:59:31.819Z,528
2017-09-25T07:00:41.156Z,504
2017-09-25T07:01:50.493Z,476
2017-09-25T07:02:59.187Z,452
2017-09-25T07:04:08.200Z,424
2017-09-25T07:05:17.214Z,428
2017-09-25T07:06:26.551Z,444
2017-09-25T07:07:35.891Z,456
2017-09-25T07:08:44.908Z,480
2017-09-25T07:09:53.925Z,484
2017-09-25T07:11:02.622Z,468
2017-09-25T07:12:11.319Z,448
2017-09-25T07:13:20.654Z,456
2017-09-25T07:14:29.671Z,480
2017-09-25T07:15:38.369Z,476
2017-09-25T07:16:47.701Z,468
2017-09-25T07:17:56.395Z,464
2017-09-25T07:19:05.456Z,464
2017-09-25T07:20:14.788Z,468
2017-09-25T07:21:23.486Z,452
2017-09-25T07:22:32.821Z,412
2017-09-25T07:23:41.515Z,420
2017-09-25T07:24:50.530Z,444
2017-09-25T07:25:59.865Z,488
2017-09-25T07:27:08.565Z,500
2017-09-25T07:28:17.261Z,472
2017-09-25T07:29:26.280Z,464
2017-09-25T07:30:34.975Z,508
2017-09-25T07:31:44.308Z,552
2017-09-25T07:32:53.326Z,596
2017-09-25T07:34:02.669Z,656
2017-09-25T07:35:12.010Z,676
2017-09-25T07:36:21.023Z,648
2017-09-25T07:37:30.678Z,664
2017-09-25T07:38:39.371Z,660
2017-09-25T07:39:48.707Z,660
2017-09-25T07:40:57.732Z,672
2017-09-25T07:42:07.068Z,668
2017-09-25T07:43:16.085Z,676
2017-09-25T07:44:25.760Z,660
2017-09-25T07:45:35.101Z,672
2017-09-25T07:46:44.117Z,704
2017-09-25T07:47:53.130Z,792
2017-09-25T07:49:02.147Z,864
2017-09-25T07:50:11.812Z,888
2017-09-25T07:51:20.507Z,848
2017-09-25T07:52:29.203Z,800
2017-09-25T07:53:37.900Z,800
2017-09-25T07:54:46.918Z,764
2017-09-25T07:55:56.251Z,696
2017-09-25T07:57:05.592Z,696
2017-09-25T07:58:14.609Z,700
2017-09-25T07:59:23.942Z,640
2017-09-25T08:00:33.277Z,600
2017-09-25T08:01:42.294Z,576
2017-09-25T08:02:51.630Z,588
2017-09-25T08:04:00.645Z,628
2017-09-25T08:05:09.339Z,656
2017-09-25T08:06:18.358Z,676
2017-09-25T08:07:27.695Z,732
2017-09-25T08:08:36.389Z,788
2017-09-25T08:09:45.087Z,876
2017-09-25T08:10:54.426Z,924
2017-09-25T08:12:03.441Z,924
2017-09-25T08:13:12.456Z,924
2017-09-25T08:14:21.152Z,920
2017-09-25T08:15:30.488Z,996
2017-09-25T08:16:39.509Z,1128
2017-09-25T08:17:48.841Z,1204
2017-09-25T08:18:57.539Z,1292
2017-09-25T08:20:06.559Z,1460
2017-09-25T08:21:15.897Z,1956
2017-09-25T08:22:24.911Z,3460
2017-09-25T08:23:33.925Z,2840
2017-09-25T08:24:43.583Z,2820
2017-09-25T08:25:52.923Z,2592
2017-09-25T08:27:01.938Z,2476
2017-09-25T08:28:10.958Z,2484
2017-09-25T08:29:20.298Z,2948
2017-09-25T08:30:29.953Z,1852
2017-09-25T08:31:39.287Z,2380
2017-09-25T08:32:47.983Z,3328
2017-09-25T08:33:56.998Z,3236
2017-09-25T08:35:06.024Z,3052
2017-09-25T08:36:15.037Z,2792
2017-09-25T08:37:24.053Z,2520
2017-09-25T08:38:33.707Z,2204
2017-09-25T08:39:42.721Z,2540
2017-09-25T08:40:51.739Z,2624
2017-09-25T08:42:00.434Z,2612
2017-09-25T08:43:10.408Z,2776
2017-09-25T08:44:20.072Z,2056
2017-09-25T08:45:29.088Z,2196
2017-09-25T08:46:38.424Z,2560
2017-09-25T08:47:47.761Z,2452
2017-09-25T08:48:57.098Z,2364
2017-09-25T08:50:06.128Z,2640
2017-09-25T08:51:15.145Z,2648
2017-09-25T08:52:25.123Z,2692
2017-09-25T08:53:34.137Z,2296
2017-09-25T08:54:43.154Z,2240
2017-09-25T08:55:52.816Z,2464
2017-09-25T08:57:01.831Z,2628
2017-09-25T08:58:10.847Z,2888
2017-09-25T08:59:19.545Z,2752
2017-09-25T09:00:28.243Z,2976
2017-09-25T09:01:37.261Z,2760
2017-09-25T09:02:45.959Z,2592
2017-09-25T09:03:55.295Z,2484
2017-09-25T09:05:03.992Z,2436
2017-09-25T09:06:13.009Z,2440
2017-09-25T09:07:22.347Z,2452
2017-09-25T09:08:31.689Z,2468
2017-09-25T09:09:40.706Z,2204
2017-09-25T09:10:50.048Z,2224
2017-09-25T09:11:59.066Z,2216
2017-09-25T09:13:08.081Z,2252
2017-09-25T09:14:17.744Z,2232
2017-09-25T09:15:27.078Z,1956
2017-09-25T09:16:37.066Z,1628
2017-09-25T09:17:45.760Z,1444
2017-09-25T09:18:55.738Z,1320
2017-09-25T09:20:05.074Z,1252
2017-09-25T09:21:14.732Z,1212
2017-09-25T09:22:23.432Z,1152
2017-09-25T09:23:33.095Z,1268
2017-09-25T09:24:42.114Z,2708
2017-09-25T09:25:51.129Z,2240
2017-09-25T09:27:00.147Z,1948
2017-09-25T09:28:08.850Z,1396
2017-09-25T09:29:18.508Z,1068
2017-09-25T09:30:28.173Z,860
2017-09-25T09:31:37.510Z,784
2017-09-25T09:32:46.844Z,792
2017-09-25T09:33:55.540Z,776
2017-09-25T09:35:04.880Z,732
2017-09-25T09:36:14.535Z,700
2017-09-25T09:37:24.195Z,752
2017-09-25T09:38:33.568Z,932
2017-09-25T09:39:42.246Z,984
2017-09-25T09:40:51.579Z,936
2017-09-25T09:42:00.285Z,768
2017-09-25T09:43:10.589Z,708
2017-09-25T09:44:19.605Z,1260
2017-09-25T09:45:28.939Z,1264
2017-09-25T09:46:37.954Z,1268
2017-09-25T09:47:47.624Z,1028
2017-09-25T09:48:56.969Z,824
2017-09-25T09:50:06.306Z,708
2017-09-25T09:51:15.642Z,684
2017-09-25T09:52:24.976Z,704
2017-09-25T09:53:33.995Z,760
2017-09-25T09:54:43.652Z,848
2017-09-25T09:55:52.669Z,972
2017-09-25T09:57:01.685Z,1012
2017-09-25T09:58:11.023Z,1112
2017-09-25T09:59:20.038Z,1228
2017-09-25T10:00:29.694Z,1420
2017-09-25T10:01:39.037Z,1472
2017-09-25T10:02:48.379Z,1420
2017-09-25T10:03:58.354Z,1180
2017-09-25T10:05:07.372Z,1036
2017-09-25T10:06:16.744Z,960
2017-09-25T10:07:25.724Z,852
2017-09-25T10:08:34.420Z,768
2017-09-25T10:09:44.074Z,664
2017-09-25T10:10:53.407Z,640
2017-09-25T10:12:02.106Z,652
2017-09-25T10:13:11.126Z,676
2017-09-25T10:14:20.145Z,688
2017-09-25T10:15:29.804Z,672
2017-09-25T10:16:38.500Z,660
2017-09-25T10:17:47.524Z,660
2017-09-25T10:18:56.862Z,688
2017-09-25T10:20:05.875Z,736
2017-09-25T10:21:15.220Z,736
2017-09-25T10:22:24.237Z,716
2017-09-25T10:23:32.933Z,708
2017-09-25T10:24:41.949Z,708
2017-09-25T10:25:51.606Z,704
2017-09-25T10:27:01.583Z,700
2017-09-25T10:28:10.928Z,716
2017-09-25T10:29:19.945Z,732
2017-09-25T10:30:28.961Z,780
2017-09-25T10:31:37.974Z,844
2017-09-25T10:32:46.989Z,936
2017-09-25T10:33:55.688Z,1020
2017-09-25T10:35:05.033Z,1184
2017-09-25T10:36:13.728Z,1364
2017-09-25T10:37:22.748Z,1400
2017-09-25T10:38:32.079Z,2240
2017-09-25T10:39:42.065Z,1136
2017-09-25T10:40:51.081Z,984
2017-09-25T10:42:00.734Z,900
2017-09-25T10:43:10.077Z,712
2017-09-25T10:44:19.095Z,604
2017-09-25T10:45:28.117Z,524
2017-09-25T10:46:37.455Z,484
2017-09-25T10:47:46.472Z,464
2017-09-25T10:48:55.484Z,460
2017-09-25T10:50:04.504Z,476
2017-09-25T10:51:13.519Z,544
2017-09-25T10:52:22.536Z,644
2017-09-25T10:53:31.552Z,728
2017-09-25T10:54:41.209Z,752
2017-09-25T10:55:50.545Z,780
2017-09-25T10:56:59.912Z,872
2017-09-25T10:58:08.931Z,1068
2017-09-25T10:59:18.265Z,1248
2017-09-25T11:00:27.923Z,1464
2017-09-25T11:01:37.257Z,1800
2017-09-25T11:02:46.276Z,2168
2017-09-25T11:03:55.615Z,2508
2017-09-25T11:05:04.950Z,3276
2017-09-25T11:06:14.609Z,5480
2017-09-25T11:07:23.947Z,2900
2017-09-25T11:08:32.645Z,1940
2017-09-25T11:09:41.986Z,1516
2017-09-25T11:10:51.001Z,1188
2017-09-25T11:12:00.653Z,880
2017-09-25T11:13:09.674Z,600
2017-09-25T11:14:18.371Z,492
2017-09-25T11:15:27.065Z,424
2017-09-25T11:16:36.689Z,388
2017-09-25T11:17:46.606Z,368
2017-09-25T11:18:55.620Z,368
2017-09-25T11:20:04.316Z,392
2017-09-25T11:21:13.654Z,416
2017-09-25T11:22:22.670Z,448
2017-09-25T11:23:31.368Z,484
2017-09-25T11:24:40.703Z,484
2017-09-25T11:25:50.041Z,488
2017-09-25T11:26:59.377Z,488
2017-09-25T11:28:08.711Z,524
2017-09-25T11:29:17.728Z,528
2017-09-25T11:30:26.746Z,568
2017-09-25T11:31:35.761Z,616
2017-09-25T11:32:45.095Z,648
2017-09-25T11:33:54.433Z,680
2017-09-25T11:35:04.088Z,668
2017-09-25T11:36:13.430Z,644
2017-09-25T11:37:23.457Z,632
2017-09-25T11:38:32.474Z,644
2017-09-25T11:39:41.815Z,712
2017-09-25T11:40:51.151Z,704
2017-09-25T11:42:00.486Z,676
2017-09-25T11:43:10.468Z,680
2017-09-25T11:44:20.131Z,724
2017-09-25T11:45:29.465Z,812
2017-09-25T11:46:38.485Z,904
2017-09-25T11:47:47.186Z,864
2017-09-25T11:48:56.203Z,724
2017-09-25T11:50:04.900Z,696
2017-09-25T11:51:14.236Z,632
2017-09-25T11:52:23.578Z,640
2017-09-25T11:53:33.234Z,644
2017-09-25T11:54:42.280Z,592
2017-09-25T11:55:51.264Z,556
2017-09-25T11:57:00.281Z,480
2017-09-25T11:58:09.620Z,420
2017-09-25T11:59:18.957Z,376
2017-09-25T12:00:27.970Z,364
2017-09-25T12:01:37.627Z,440
2017-09-25T12:02:46.989Z,576
2017-09-25T12:03:56.653Z,716
2017-09-25T12:05:06.316Z,824
2017-09-25T12:06:15.010Z,952
2017-09-25T12:07:24.030Z,880
2017-09-25T12:08:32.728Z,828
2017-09-25T12:09:41.744Z,1076
2017-09-25T12:10:51.080Z,1408
2017-09-25T12:12:00.418Z,1624
2017-09-25T12:13:09.435Z,1360
2017-09-25T12:14:18.456Z,1160
2017-09-25T12:15:27.472Z,1056
2017-09-25T12:16:36.807Z,868
2017-09-25T12:17:45.822Z,664
2017-09-25T12:18:54.839Z,580
2017-09-25T12:20:03.537Z,592
2017-09-25T12:21:13.192Z,672
2017-09-25T12:22:22.209Z,816
2017-09-25T12:23:31.551Z,952
2017-09-25T12:24:40.244Z,1108
2017-09-25T12:25:49.578Z,1220
2017-09-25T12:26:58.276Z,1324
2017-09-25T12:28:06.970Z,1404
2017-09-25T12:29:15.987Z,1508
2017-09-25T12:30:25.327Z,1552
2017-09-25T12:31:34.375Z,1480
2017-09-25T12:32:44.040Z,1536
2017-09-25T12:33:53.376Z,1768
2017-09-25T12:35:02.712Z,1828
2017-09-25T12:36:12.057Z,1780
2017-09-25T12:37:20.750Z,1544
2017-09-25T12:38:29.451Z,1624
2017-09-25T12:39:38.469Z,1640
2017-09-25T12:40:47.489Z,1588
2017-09-25T12:41:56.511Z,1684
2017-09-25T12:43:05.849Z,2136
2017-09-25T12:44:14.552Z,2100
2017-09-25T12:45:23.565Z,1916
2017-09-25T12:46:32.262Z,1888
2017-09-25T12:47:41.600Z,1900
2017-09-25T12:48:50.622Z,2172
2017-09-25T12:49:59.958Z,1884
2017-09-25T12:51:08.660Z,1800
2017-09-25T12:52:17.677Z,1824
2017-09-25T12:53:27.019Z,1760
2017-09-25T12:54:35.714Z,1600
2017-09-25T12:55:44.734Z,1376
2017-09-25T12:56:54.073Z,1260
2017-09-25T12:58:03.412Z,1108
2017-09-25T12:59:12.427Z,1040
2017-09-25T13:00:21.124Z,940
2017-09-25T13:01:29.822Z,764
2017-09-25T13:02:38.522Z,680
2017-09-25T13:03:48.178Z,568
2017-09-25T13:04:57.838Z,504
2017-09-25T13:06:06.537Z,448
2017-09-25T13:07:15.239Z,432
2017-09-25T13:08:24.255Z,412
2017-09-25T13:09:34.246Z,432
2017-09-25T13:10:43.261Z,496
2017-09-25T13:11:52.280Z,536
2017-09-25T13:13:01.306Z,556
2017-09-25T13:14:10.645Z,564
2017-09-25T13:15:20.303Z,576
2017-09-25T13:16:29.343Z,576
2017-09-25T13:17:38.690Z,576
2017-09-25T13:18:48.030Z,564
2017-09-25T13:19:57.043Z,544
2017-09-25T13:21:06.060Z,532
2017-09-25T13:22:15.725Z,532
2017-09-25T13:23:25.383Z,536
2017-09-25T13:24:34.079Z,540
2017-09-25T13:25:43.096Z,544
2017-09-25T13:26:51.792Z,544
2017-09-25T13:28:01.130Z,548
2017-09-25T13:29:10.465Z,564
2017-09-25T13:30:19.482Z,580
2017-09-25T13:31:28.505Z,596
2017-09-25T13:32:38.161Z,616
2017-09-25T13:33:47.815Z,616
2017-09-25T13:34:56.513Z,596
2017-09-25T13:36:05.528Z,564
2017-09-25T13:37:14.222Z,540
2017-09-25T13:38:23.885Z,528
2017-09-25T13:39:33.861Z,520
2017-09-25T13:40:43.514Z,512
2017-09-25T13:41:52.529Z,516
2017-09-25T13:43:01.867Z,516
2017-09-25T13:44:10.892Z,524
2017-09-25T13:45:20.228Z,536
2017-09-25T13:46:29.563Z,552
2017-09-25T13:47:38.579Z,568
2017-09-25T13:48:47.596Z,584
2017-09-25T13:49:56.612Z,588
2017-09-25T13:51:05.628Z,584
2017-09-25T13:52:14.964Z,556
2017-09-25T13:53:23.981Z,512
2017-09-25T13:54:32.999Z,476
2017-09-25T13:55:42.975Z,448
2017-09-25T13:56:51.988Z,436
2017-09-25T13:58:01.007Z,428
2017-09-25T14:02:59.477Z,400
2017-09-25T14:04:08.823Z,400
2017-09-25T14:05:18.493Z,404
2017-09-25T14:06:27.509Z,404
2017-09-25T14:07:37.165Z,400
2017-09-25T14:08:46.178Z,388
2017-09-25T14:09:54.876Z,380
2017-09-25T14:11:04.240Z,372
2017-09-25T14:12:13.900Z,360
2017-09-25T14:13:23.241Z,344
2017-09-25T14:14:33.230Z,340
2017-09-25T14:15:42.568Z,324
2017-09-25T14:16:52.222Z,300
2017-09-25T14:18:01.559Z,284
2017-09-25T14:19:10.893Z,268
2017-09-25T14:20:20.873Z,244
2017-09-25T14:21:29.571Z,224
2017-09-25T14:22:38.586Z,208
2017-09-25T14:23:47.848Z,200
2017-09-25T14:24:57.982Z,204
2017-09-25T14:26:06.733Z,208
2017-09-25T14:27:15.751Z,212
2017-09-25T14:28:25.416Z,212
2017-09-25T14:29:34.751Z,220
2017-09-25T14:30:44.095Z,220
2017-09-25T14:31:53.112Z,224
2017-09-25T14:33:02.448Z,220
2017-09-25T14:34:11.785Z,216
2017-09-25T14:35:21.121Z,212
2017-09-25T14:36:29.818Z,212
2017-09-25T14:37:39.159Z,212
2017-09-25T14:38:47.863Z,212
2017-09-25T14:39:57.209Z,216
2017-09-25T14:41:06.230Z,220
2017-09-25T14:42:16.229Z,236
2017-09-25T14:43:25.258Z,256
2017-09-25T14:44:34.281Z,264
2017-09-25T14:45:43.307Z,272
2017-09-25T14:46:52.323Z,276
2017-09-25T14:48:01.982Z,284
2017-09-25T14:49:11.637Z,308
2017-09-25T14:50:21.615Z,336
2017-09-25T14:51:30.964Z,360
2017-09-25T14:52:40.299Z,384
2017-09-25T14:53:49.637Z,420
2017-09-25T14:54:58.655Z,448
2017-09-25T14:56:07.671Z,468
2017-09-25T14:57:16.686Z,472
2017-09-25T14:58:26.022Z,464
2017-09-25T14:59:35.356Z,460
2017-09-25T15:00:44.375Z,444
2017-09-25T15:01:54.667Z,408
2017-09-25T15:03:04.010Z,352
2017-09-25T15:04:13.989Z,308
2017-09-25T15:05:22.682Z,292
2017-09-25T15:06:31.378Z,300
2017-09-25T15:07:40.714Z,324
2017-09-25T15:08:49.737Z,348
2017-09-25T15:09:59.071Z,336
2017-09-25T15:11:09.050Z,300
2017-09-25T15:12:18.065Z,272
2017-09-25T15:13:27.403Z,264
2017-09-25T15:14:36.102Z,256
2017-09-25T15:15:45.119Z,252
2017-09-25T15:16:54.456Z,252
2017-09-25T15:18:03.472Z,248
2017-09-25T15:19:12.488Z,244
2017-09-25T15:20:21.823Z,236
2017-09-25T15:21:31.162Z,228
2017-09-25T15:22:40.177Z,220
2017-09-25T15:23:49.194Z,196
2017-09-25T15:24:58.532Z,188
2017-09-25T15:26:07.557Z,192
2017-09-25T15:27:16.579Z,188
2017-09-25T15:28:25.598Z,184
2017-09-25T15:29:34.935Z,180
2017-09-25T15:30:44.589Z,176
2017-09-25T15:31:53.603Z,168
2017-09-25T15:33:02.618Z,160
2017-09-25T15:34:11.954Z,152
2017-09-25T15:35:20.971Z,144
2017-09-25T15:36:29.667Z,140
2017-09-25T15:37:38.368Z,132
2017-09-25T15:38:47.707Z,128
2017-09-25T15:39:56.721Z,124
2017-09-25T15:41:05.736Z,124
2017-09-25T15:42:14.749Z,128
2017-09-25T15:43:23.442Z,128
2017-09-25T15:44:32.458Z,128
2017-09-25T15:45:41.477Z,132
2017-09-25T15:46:50.174Z,132
2017-09-25T15:47:59.191Z,132
2017-09-25T15:49:07.889Z,128
2017-09-25T15:50:16.902Z,132
2017-09-25T15:51:26.238Z,128
2017-09-25T15:52:34.933Z,120
2017-09-25T15:53:43.948Z,120
2017-09-25T15:54:52.962Z,116
2017-09-25T15:56:01.659Z,116
2017-09-25T15:57:10.674Z,116
2017-09-25T15:58:19.371Z,112
2017-09-25T15:59:28.709Z,120
2017-09-25T16:00:37.405Z,124
2017-09-25T16:01:46.419Z,120
2017-09-25T16:02:55.436Z,120
2017-09-25T16:04:05.089Z,112
2017-09-25T16:05:14.748Z,108
2017-09-25T16:06:23.446Z,104
2017-09-25T16:07:32.143Z,96
2017-09-25T16:08:40.840Z,92
2017-09-25T16:09:50.173Z,92
2017-09-25T16:10:59.543Z,84
2017-09-25T16:12:08.237Z,88
2017-09-25T16:13:17.259Z,84
2017-09-25T16:14:26.274Z,80
2017-09-25T16:15:35.290Z,80